createdAt,value
2018-06-29T00:06:43.277Z,16.3
2018-06-29T00:16:57.102Z,16.5
2018-06-29T00:27:11.422Z,16.3
2018-06-29T00:37:25.133Z,16.5
2018-06-29T00:47:40.536Z,16.6
2018-06-29T00:57:55.774Z,16.5
2018-06-29T01:08:09.464Z,16.2
2018-06-29T01:18:25.018Z,15.4
2018-06-29T01:28:40.734Z,15
2018-06-29T01:38:54.862Z,15.4
2018-06-29T01:49:10.708Z,15.3
2018-06-29T01:59:25.625Z,15.3
2018-06-29T02:09:39.540Z,15.3
2018-06-29T02:19:53.715Z,15.1
2018-06-29T02:30:08.226Z,14.9
2018-06-29T02:40:22.112Z,14.6
2018-06-29T02:50:36.387Z,14.7
2018-06-29T03:00:50.322Z,14.6
2018-06-29T03:11:04.278Z,14.8
2018-06-29T03:21:19.907Z,14.9
2018-06-29T03:31:35.102Z,14.9
2018-06-29T03:41:50.803Z,14.9
2018-06-29T03:52:06.280Z,14.9
2018-06-29T04:02:21.097Z,14.8
2018-06-29T04:12:34.990Z,14.4
2018-06-29T04:22:50.439Z,14.3
2018-06-29T04:33:05.037Z,14.8
2018-06-29T04:43:20.177Z,14.9
2018-06-29T04:53:34.977Z,15.5
2018-06-29T05:03:48.904Z,15.7
2018-06-29T05:14:04.335Z,16
2018-06-29T05:24:19.708Z,16.3
2018-06-29T05:34:34.746Z,16.3
2018-06-29T05:44:50.189Z,16.5
2018-06-29T05:55:04.942Z,16.6
2018-06-29T06:05:20.824Z,17.3
2018-06-29T06:15:36.308Z,18.9
2018-06-29T06:25:50.972Z,20.8
2018-06-29T06:36:06.075Z,21.4
2018-06-29T06:46:20.611Z,22
2018-06-29T06:56:35.866Z,22.7
2018-06-29T07:06:50.118Z,23.8
2018-06-29T07:17:05.266Z,24
2018-06-29T07:27:19.991Z,25.1
2018-06-29T07:37:35.386Z,25.7
2018-06-29T07:47:50.536Z,26
2018-06-29T07:58:04.252Z,27.3
2018-06-29T08:08:19.612Z,27.6
2018-06-29T08:18:34.746Z,27.6
2018-06-29T08:28:48.813Z,27
2018-06-29T08:39:03.500Z,27.1
2018-06-29T08:49:18.716Z,28
2018-06-29T08:59:33.632Z,28.1
2018-06-29T09:09:49.223Z,27.5
2018-06-29T09:20:03.242Z,28.3
2018-06-29T09:30:18.738Z,28.3
2018-06-29T09:40:32.932Z,29
2018-06-29T09:50:48.307Z,28.8
2018-06-29T10:01:04.145Z,28.6
2018-06-29T10:11:18.692Z,29.2
2018-06-29T10:21:33.022Z,30
2018-06-29T10:31:48.726Z,30.2
2018-06-29T10:42:04.485Z,31.1
2018-06-29T10:52:20.225Z,30.1
2018-06-29T11:02:34.243Z,30.4
2018-06-29T11:12:49.920Z,30.2
2018-06-29T11:23:05.850Z,30.6
2018-06-29T11:33:19.989Z,30.3
2018-06-29T11:43:35.616Z,30.4
2018-06-29T11:53:49.658Z,30.4
2018-06-29T12:04:03.769Z,30.5
2018-06-29T12:14:18.122Z,30.4
2018-06-29T12:24:33.164Z,30.2
2018-06-29T12:34:47.878Z,30.9
2018-06-29T12:45:02.535Z,30.9
2018-06-29T12:55:18.236Z,30.9
2018-06-29T13:05:34.373Z,31.4
2018-06-29T13:15:49.341Z,31.1
2018-06-29T13:26:04.534Z,31.2
2018-06-29T13:36:18.814Z,31.9
2018-06-29T13:46:33.991Z,32
2018-06-29T13:56:48.717Z,31.7
2018-06-29T14:07:03.405Z,31.4
2018-06-29T14:17:18.577Z,31.7
2018-06-29T14:27:33.514Z,31.8
2018-06-29T14:37:48.590Z,31.8
2018-06-29T14:48:03.396Z,31.4
2018-06-29T14:58:18.392Z,31.7
2018-06-29T15:08:33.338Z,31.4
2018-06-29T15:18:49.176Z,31
2018-06-29T15:29:05.153Z,30.9
2018-06-29T15:39:20.842Z,31.4
2018-06-29T15:49:35.030Z,31.1
2018-06-29T15:59:49.407Z,31.6
2018-06-29T16:10:03.831Z,31.2
2018-06-29T16:20:19.249Z,30.7
2018-06-29T16:30:34.261Z,30.4
2018-06-29T16:40:48.124Z,30.2
2018-06-29T16:51:02.955Z,29.6
2018-06-29T17:01:18.263Z,29.3
2018-06-29T17:11:32.790Z,28.3
2018-06-29T17:21:48.140Z,27.8
2018-06-29T17:32:03.862Z,27.6
2018-06-29T17:42:18.330Z,27.1
2018-06-29T17:52:32.686Z,26.9
2018-06-29T18:02:47.664Z,25.8
2018-06-29T18:13:02.239Z,25.3
2018-06-29T18:23:16.340Z,25
2018-06-29T18:33:31.883Z,24.7
2018-06-29T18:43:46.752Z,24.5
2018-06-29T18:54:02.015Z,24.1
2018-06-29T19:04:16.114Z,23.9
2018-06-29T19:14:29.912Z,23.6
2018-06-29T19:24:45.324Z,23.3
2018-06-29T19:35:01.026Z,22.9
2018-06-29T19:45:15.362Z,22.5
2018-06-29T19:55:29.517Z,22.3
2018-06-29T20:05:45.529Z,21.8
2018-06-29T20:15:58.822Z,21.5
2018-06-29T20:26:13.649Z,21.1
2018-06-29T20:36:27.184Z,21
2018-06-29T20:46:41.130Z,20.7
2018-06-29T20:56:55.165Z,20.4
2018-06-29T21:07:09.861Z,20.3
2018-06-29T21:17:25.128Z,19.9
2018-06-29T21:27:40.360Z,19.6
2018-06-29T21:37:54.103Z,19.4
2018-06-29T21:48:09.666Z,19.1
2018-06-29T21:58:24.431Z,18.9
2018-06-29T22:08:39.912Z,18.7
2018-06-29T22:18:55.028Z,18.4
2018-06-29T22:29:09.698Z,18.3
2018-06-29T22:39:25.222Z,17.9
2018-06-29T22:49:40.545Z,17.8
2018-06-29T22:59:55.605Z,17.6
2018-06-29T23:10:10.332Z,17.3
2018-06-29T23:20:24.155Z,17.1
2018-06-29T23:30:37.956Z,16.8
2018-06-29T23:40:53.160Z,16.7
2018-06-29T23:51:07.852Z,16.5
